CZFN/ZFN METAR and TAF weather

Enter ICAO airport designator
Station Type Date Time Source
CZFN METAR 2020/04/06 23:00 UTC NOAA

CZFN 062300Z 31009KT 230V360 15SM BKN053 M02/M11 A2946 RMK SC6 S0 AFT 1500/53/SNW CVR/HARD PACK/LAST STFD OBS/NEXT 071500 SLP986


Station Type Date Time Source
CZFN Decoded METAR 2020/04/06 23:00 UTC NOAA

Fort Norman Airport, Canada (CZFN) 64-55N 125-34W
Apr 06, 2020 - 07:00 PM EDT / 2020.04.06 2300 UTC
Wind: from the NW (310 degrees) at 10 MPH (9 KT) (direction variable):0
Visibility: 15 mile(s):0
Sky conditions: mostly cloudy
Temperature: 28 F (-2 C)
Windchill: 19 F (-7 C):1
Dew Point: 12 F (-11 C)
Relative Humidity: 50%
Pressure (altimeter): 29.46 in. Hg (997 hPa)
ob: CZFN 062300Z 31009KT 230V360 15SM BKN053 M02/M11 A2946 RMK SC6 S0 AFT 1500/53/SNW CVR/HARD PACK/LAST STFD OBS/NEXT 071500 SLP986
cycle: 23

Station Type Date Time Source
CZFN TAF UTC NOAA

Error!

Example: see airport list